createdAt,value
2019-02-28T00:01:47.185Z,24.43
2019-02-28T00:04:16.287Z,26.27
2019-02-28T00:06:45.447Z,26.70
2019-02-28T00:09:15.103Z,25.43
2019-02-28T00:11:44.239Z,27.93
2019-02-28T00:14:13.247Z,27.33
2019-02-28T00:16:42.242Z,32.57
2019-02-28T00:19:11.398Z,29.93
2019-02-28T00:21:41.237Z,28.70
2019-02-28T00:24:10.983Z,26.80
2019-02-28T00:26:46.263Z,21.37
2019-02-28T00:29:10.923Z,28.87
2019-02-28T00:31:39.940Z,24.73
2019-02-28T00:34:09.119Z,28.00
2019-02-28T00:36:38.067Z,25.57
2019-02-28T00:39:07.522Z,29.43
2019-02-28T00:41:36.696Z,33.93
2019-02-28T00:44:05.803Z,28.33
2019-02-28T00:46:34.895Z,30.23
2019-02-28T00:49:03.959Z,27.37
2019-02-28T00:51:33.476Z,27.13
2019-02-28T00:54:02.551Z,32.13
2019-02-28T00:56:31.557Z,30.53
2019-02-28T00:59:01.169Z,32.57
2019-02-28T01:01:30.353Z,27.00
2019-02-28T01:03:59.547Z,29.93
2019-02-28T01:06:30.763Z,30.57
2019-02-28T01:09:00.013Z,33.63
2019-02-28T01:11:29.265Z,30.83
2019-02-28T01:14:01.513Z,25.03
2019-02-28T01:16:29.421Z,27.90
2019-02-28T01:18:58.426Z,29.90
2019-02-28T01:21:27.518Z,29.57
2019-02-28T01:23:56.796Z,31.17
2019-02-28T01:26:26.176Z,28.80
2019-02-28T01:28:55.238Z,27.37
2019-02-28T01:31:24.675Z,28.57
2019-02-28T01:33:56.070Z,29.97
2019-02-28T01:36:24.565Z,35.03
2019-02-28T01:38:57.785Z,34.87
2019-02-28T01:41:24.668Z,26.97
2019-02-28T01:43:53.868Z,32.30
2019-02-28T01:46:22.935Z,27.47
2019-02-28T01:48:54.565Z,33.13
2019-02-28T01:51:22.713Z,33.00
2019-02-28T01:53:53.564Z,29.97
2019-02-28T01:56:22.550Z,32.20
2019-02-28T01:58:51.769Z,35.43
2019-02-28T02:01:20.921Z,28.83
2019-02-28T02:03:50.027Z,31.77
2019-02-28T02:06:19.035Z,29.00
2019-02-28T02:08:48.291Z,35.77
2019-02-28T02:11:17.763Z,35.40
2019-02-28T02:13:47.086Z,35.03
2019-02-28T02:16:16.387Z,28.83
2019-02-28T02:18:45.528Z,33.70
2019-02-28T02:21:14.831Z,30.07
2019-02-28T02:23:43.833Z,39.37
2019-02-28T02:26:12.871Z,31.03
2019-02-28T02:28:42.073Z,26.30
2019-02-28T02:31:11.258Z,33.60
2019-02-28T02:33:40.455Z,33.33
2019-02-28T02:36:09.585Z,32.43
2019-02-28T02:38:41.537Z,30.67
2019-02-28T02:41:09.888Z,37.00
2019-02-28T02:43:38.991Z,29.80
2019-02-28T02:46:08.226Z,34.03
2019-02-28T02:48:38.650Z,29.97
2019-02-28T02:51:11.113Z,27.50
2019-02-28T02:53:41.898Z,31.53
2019-02-28T02:56:10.511Z,30.00
2019-02-28T02:58:39.523Z,34.20
2019-02-28T03:01:08.720Z,35.17
2019-02-28T03:03:42.859Z,37.90
2019-02-28T03:06:12.672Z,31.77
2019-02-28T03:08:39.490Z,35.53
2019-02-28T03:11:08.617Z,30.73
2019-02-28T03:13:42.277Z,33.43
2019-02-28T03:16:08.482Z,33.63
2019-02-28T03:18:37.962Z,37.33
2019-02-28T03:21:07.008Z,35.67
2019-02-28T03:23:40.151Z,31.17
2019-02-28T03:26:07.337Z,36.07
2019-02-28T03:28:36.453Z,32.37
2019-02-28T03:31:11.781Z,32.70
2019-02-28T03:33:36.342Z,30.57
2019-02-28T03:36:05.429Z,35.63
2019-02-28T03:38:34.417Z,32.67
2019-02-28T03:41:03.426Z,30.83
2019-02-28T03:43:32.969Z,33.07
2019-02-28T03:46:01.960Z,40.10
2019-02-28T03:48:34.909Z,31.53
2019-02-28T03:51:01.859Z,33.93
2019-02-28T03:53:31.030Z,31.40
2019-02-28T03:56:00.438Z,38.17
2019-02-28T03:58:29.560Z,33.27
2019-02-28T04:00:58.717Z,31.47
2019-02-28T04:03:33.313Z,36.10
2019-02-28T04:06:03.032Z,33.23
2019-02-28T04:08:30.707Z,28.77
2019-02-28T04:10:59.858Z,33.03
2019-02-28T04:13:28.897Z,32.93
2019-02-28T04:16:08.541Z,34.60
2019-02-28T04:18:29.859Z,30.77
2019-02-28T04:21:00.295Z,34.03
2019-02-28T04:23:35.466Z,32.80
2019-02-28T04:26:00.477Z,33.67
2019-02-28T04:28:29.740Z,37.70
2019-02-28T04:30:58.945Z,30.50
2019-02-28T04:33:28.520Z,31.67
2019-02-28T04:36:00.512Z,29.90
2019-02-28T04:38:28.813Z,27.67
2019-02-28T04:40:58.864Z,30.33
2019-02-28T04:43:29.300Z,28.63
2019-02-28T04:45:58.522Z,34.07
2019-02-28T04:48:27.608Z,35.77
2019-02-28T04:50:57.055Z,37.23
2019-02-28T04:53:26.150Z,32.70
2019-02-28T04:55:55.244Z,33.03
2019-02-28T04:58:25.284Z,35.67
2019-02-28T05:00:55.210Z,33.47
2019-02-28T05:03:27.899Z,35.00
2019-02-28T05:05:55.100Z,34.00
2019-02-28T05:08:24.080Z,34.20
2019-02-28T05:10:55.652Z,31.07
2019-02-28T05:13:23.959Z,30.20
2019-02-28T05:15:53.553Z,33.23
2019-02-28T05:18:22.693Z,34.17
2019-02-28T05:20:51.726Z,32.03
2019-02-28T05:23:20.822Z,37.53
2019-02-28T05:25:51.992Z,36.97
2019-02-28T05:28:21.468Z,33.50
2019-02-28T05:30:53.670Z,33.63
2019-02-28T05:33:21.519Z,42.83
2019-02-28T05:35:50.511Z,32.83
2019-02-28T05:38:21.229Z,29.03
2019-02-28T05:40:50.594Z,37.43
2019-02-28T05:43:19.686Z,33.33
2019-02-28T05:45:49.814Z,32.97
2019-02-28T05:48:18.892Z,34.17
2019-02-28T05:50:52.766Z,30.70
2019-02-28T05:53:19.005Z,29.73
2019-02-28T05:55:48.115Z,31.27
2019-02-28T05:58:18.421Z,36.37
2019-02-28T06:00:48.104Z,38.97
2019-02-28T06:03:17.399Z,32.07
2019-02-28T06:05:47.163Z,32.63
2019-02-28T06:08:16.353Z,35.40
2019-02-28T06:10:45.632Z,34.83
2019-02-28T06:13:15.402Z,30.27
2019-02-28T06:15:46.099Z,32.60
2019-02-28T06:18:15.355Z,29.63
2019-02-28T06:20:44.709Z,32.67
2019-02-28T06:23:13.839Z,34.50
2019-02-28T06:25:42.886Z,32.30
2019-02-28T06:28:12.070Z,33.27
2019-02-28T06:30:42.619Z,26.13
2019-02-28T06:33:14.535Z,34.63
2019-02-28T06:35:43.579Z,29.23
2019-02-28T06:38:12.716Z,30.93
2019-02-28T06:40:41.747Z,28.20
2019-02-28T06:43:11.066Z,30.57
2019-02-28T06:45:40.482Z,28.90
2019-02-28T06:48:09.807Z,34.50
2019-02-28T06:50:38.959Z,32.57
2019-02-28T06:53:08.093Z,39.73
2019-02-28T06:55:47.472Z,28.53
2019-02-28T06:58:17.646Z,32.97
2019-02-28T07:00:47.437Z,33.23
2019-02-28T07:03:17.464Z,29.70
2019-02-28T07:05:46.463Z,35.20
2019-02-28T07:08:15.567Z,31.17
2019-02-28T07:10:45.013Z,30.77
2019-02-28T07:13:15.604Z,30.20
2019-02-28T07:15:44.677Z,29.03
2019-02-28T07:18:13.770Z,25.27
2019-02-28T07:20:42.996Z,32.73
2019-02-28T07:23:11.959Z,25.83
2019-02-28T07:25:48.145Z,29.63
2019-02-28T07:28:17.385Z,29.87
2019-02-28T07:30:50.269Z,31.57
2019-02-28T07:33:17.513Z,34.73
2019-02-28T07:35:50.027Z,30.40
2019-02-28T07:38:19.307Z,35.07
2019-02-28T07:44:49.452Z,30.73
2019-02-28T07:47:25.344Z,34.00
2019-02-28T07:49:52.742Z,33.80
2019-02-28T07:53:34.293Z,37.47
2019-02-28T07:56:03.778Z,33.33
2019-02-28T07:58:35.703Z,41.50
2019-02-28T08:01:04.981Z,48.67
2019-02-28T08:03:34.130Z,37.80
2019-02-28T08:06:05.880Z,34.37
2019-02-28T08:08:36.956Z,50.53
2019-02-28T08:11:06.396Z,43.70
2019-02-28T08:13:37.874Z,42.37
2019-02-28T08:16:06.978Z,46.13
2019-02-28T08:18:36.065Z,42.00
2019-02-28T08:21:08.761Z,40.70
2019-02-28T08:24:06.413Z,35.07
2019-02-28T08:26:35.598Z,35.40
2019-02-28T08:29:12.377Z,39.60
2019-02-28T08:34:46.755Z,36.90
2019-02-28T08:37:18.958Z,39.20
2019-02-28T08:39:46.555Z,39.67
2019-02-28T08:42:15.635Z,38.90
2019-02-28T08:44:44.984Z,42.27
2019-02-28T08:47:14.102Z,41.57
2019-02-28T08:49:45.476Z,34.40
2019-02-28T08:52:14.298Z,39.60
2019-02-28T08:54:43.331Z,38.43
2019-02-28T08:57:13.009Z,34.67
2019-02-28T08:59:42.200Z,38.43
2019-02-28T09:02:14.468Z,37.77
2019-02-28T09:04:44.897Z,50.27
2019-02-28T09:07:15.245Z,48.43
2019-02-28T09:09:43.970Z,49.27
2019-02-28T09:12:13.507Z,43.93
2019-02-28T09:14:42.701Z,49.87
2019-02-28T09:17:11.687Z,44.23
2019-02-28T09:19:40.829Z,39.80
2019-02-28T09:22:09.973Z,36.07
2019-02-28T09:24:38.999Z,44.67
2019-02-28T09:27:08.159Z,43.87
2019-02-28T09:29:37.215Z,41.03
2019-02-28T09:32:06.285Z,45.77
2019-02-28T09:34:35.420Z,46.93
2019-02-28T09:37:04.569Z,42.70
2019-02-28T09:39:33.740Z,42.13
2019-02-28T09:42:02.802Z,43.50
2019-02-28T09:44:32.507Z,40.70
2019-02-28T09:47:01.727Z,44.53
2019-02-28T09:49:30.832Z,44.83
2019-02-28T09:51:59.950Z,38.37
2019-02-28T09:54:29.405Z,46.17
2019-02-28T09:56:58.435Z,39.67
2019-02-28T09:59:27.591Z,38.90
2019-02-28T10:02:01.329Z,36.27
2019-02-28T10:04:30.488Z,43.33
2019-02-28T10:06:58.158Z,37.97
2019-02-28T10:09:27.212Z,40.00
2019-02-28T10:11:56.445Z,47.60
2019-02-28T10:14:25.746Z,39.57
2019-02-28T10:16:56.228Z,47.40
2019-02-28T10:19:25.219Z,39.57
2019-02-28T10:21:54.390Z,41.10
2019-02-28T10:24:24.673Z,41.07
2019-02-28T10:26:53.892Z,41.07
2019-02-28T10:29:23.038Z,34.57
2019-02-28T10:31:52.274Z,38.53
2019-02-28T10:34:23.519Z,33.77
2019-02-28T10:36:52.148Z,36.33
2019-02-28T10:39:21.219Z,41.37
2019-02-28T10:41:50.302Z,36.77
2019-02-28T10:44:19.340Z,42.40
2019-02-28T10:46:50.317Z,36.80
2019-02-28T10:49:21.052Z,32.47
2019-02-28T10:51:50.446Z,35.87
2019-02-28T10:54:19.674Z,37.50
2019-02-28T10:56:48.908Z,34.30
2019-02-28T10:59:17.956Z,32.77
2019-02-28T11:01:47.082Z,35.07
2019-02-28T11:04:16.175Z,45.03
2019-02-28T11:06:46.811Z,35.57
2019-02-28T11:09:25.359Z,38.37
2019-02-28T11:11:53.631Z,38.83
2019-02-28T11:14:22.740Z,36.87
2019-02-28T11:16:52.269Z,41.03
2019-02-28T11:19:21.368Z,30.93
2019-02-28T11:21:50.561Z,35.57
2019-02-28T11:24:20.649Z,30.30
2019-02-28T11:26:51.061Z,34.67
2019-02-28T11:29:20.264Z,29.93
2019-02-28T11:31:50.578Z,44.53
2019-02-28T11:34:20.527Z,34.27
2019-02-28T11:36:49.650Z,30.90
2019-02-28T11:39:20.364Z,33.10
2019-02-28T11:41:52.602Z,36.57
2019-02-28T11:44:20.695Z,37.13
2019-02-28T11:46:49.859Z,39.17
2019-02-28T11:49:19.068Z,36.43
2019-02-28T11:51:49.458Z,39.33
2019-02-28T11:54:19.153Z,34.47
2019-02-28T11:56:48.362Z,34.67
2019-02-28T11:59:17.347Z,35.97
2019-02-28T12:01:48.356Z,31.83
2019-02-28T12:04:17.546Z,33.87
2019-02-28T12:06:46.666Z,41.27
2019-02-28T12:09:16.268Z,41.93
2019-02-28T12:11:46.623Z,42.97
2019-02-28T12:14:15.766Z,33.37
2019-02-28T12:16:44.887Z,30.50
2019-02-28T12:19:15.831Z,33.83
2019-02-28T12:21:45.549Z,33.47
2019-02-28T12:24:14.695Z,34.53
2019-02-28T12:26:43.782Z,33.20
2019-02-28T12:29:13.788Z,39.23
2019-02-28T12:32:08.721Z,35.20
2019-02-28T12:34:37.927Z,37.87
2019-02-28T12:37:07.119Z,36.53
2019-02-28T12:39:36.985Z,32.63
2019-02-28T12:42:06.304Z,32.63
2019-02-28T12:44:35.479Z,34.37
2019-02-28T12:47:06.654Z,29.83
2019-02-28T12:49:35.863Z,33.93
2019-02-28T12:52:05.365Z,28.73
2019-02-28T12:54:34.433Z,32.07
2019-02-28T12:57:03.713Z,26.20
2019-02-28T12:59:34.716Z,32.73
2019-02-28T13:02:07.537Z,29.33
2019-02-28T13:04:35.891Z,33.20
2019-02-28T13:07:05.466Z,37.00
2019-02-28T13:09:34.798Z,40.97
2019-02-28T13:12:08.129Z,36.93
2019-02-28T13:14:36.832Z,35.67
2019-02-28T13:17:06.072Z,37.73
2019-02-28T13:19:35.212Z,40.57
2019-02-28T13:22:04.679Z,35.73
2019-02-28T13:24:33.794Z,37.70
2019-02-28T13:27:05.568Z,34.30
2019-02-28T13:29:34.775Z,36.83
2019-02-28T13:32:04.049Z,32.37
2019-02-28T13:34:33.120Z,38.13
2019-02-28T13:37:03.249Z,35.60
2019-02-28T13:39:35.312Z,42.83
2019-02-28T13:42:04.623Z,38.70
2019-02-28T13:44:36.554Z,38.80
2019-02-28T13:47:09.424Z,33.57
2019-02-28T13:49:36.194Z,35.03
2019-02-28T13:52:06.191Z,45.60
2019-02-28T13:54:38.133Z,43.83
2019-02-28T13:57:09.719Z,39.33
2019-02-28T13:59:37.195Z,47.60
2019-02-28T14:02:06.628Z,54.63
2019-02-28T14:04:35.937Z,51.17
2019-02-28T14:07:08.357Z,42.43
2019-02-28T14:09:37.491Z,45.13
2019-02-28T14:12:09.692Z,45.37
2019-02-28T14:14:42.098Z,47.27
2019-02-28T14:17:09.859Z,50.33
2019-02-28T14:19:40.433Z,36.63
2019-02-28T14:22:11.674Z,45.30
2019-02-28T14:24:41.436Z,49.30
2019-02-28T14:27:13.003Z,39.40
2019-02-28T14:29:42.613Z,39.17
2019-02-28T14:32:12.892Z,43.33
2019-02-28T14:34:42.039Z,40.70
2019-02-28T14:37:11.415Z,48.70
2019-02-28T14:39:43.824Z,44.60
2019-02-28T14:42:17.143Z,44.97
2019-02-28T14:44:46.366Z,47.03
2019-02-28T14:47:16.614Z,34.13
2019-02-28T14:49:45.863Z,46.60
2019-02-28T14:52:15.137Z,47.80
2019-02-28T14:54:44.365Z,42.70
2019-02-28T14:57:16.691Z,38.37
2019-02-28T14:59:48.006Z,38.57
2019-02-28T15:02:17.455Z,48.13
2019-02-28T15:04:46.699Z,42.27
2019-02-28T15:07:15.879Z,46.00
2019-02-28T15:09:50.171Z,40.07
2019-02-28T15:12:20.297Z,43.97
2019-02-28T15:14:50.155Z,45.60
2019-02-28T15:17:21.431Z,49.53
2019-02-28T15:19:56.990Z,41.73
2019-02-28T15:22:24.940Z,53.47
2019-02-28T15:24:55.906Z,48.13
2019-02-28T15:27:27.259Z,43.83
2019-02-28T15:29:58.879Z,53.00
2019-02-28T15:32:32.068Z,50.10
2019-02-28T15:35:03.735Z,47.27
2019-02-28T15:37:38.692Z,42.63
2019-02-28T15:40:09.665Z,46.03
2019-02-28T15:42:42.931Z,53.93
2019-02-28T15:45:13.183Z,48.97
2019-02-28T15:47:44.556Z,50.17
2019-02-28T15:50:16.372Z,53.13
2019-02-28T15:52:45.587Z,56.73
2019-02-28T15:55:15.456Z,45.00
2019-02-28T15:57:44.633Z,43.33
2019-02-28T16:00:47.685Z,51.53
2019-02-28T16:03:08.067Z,42.33
2019-02-28T16:05:42.681Z,41.03
2019-02-28T16:08:10.399Z,47.90
2019-02-28T16:10:39.363Z,56.27
2019-02-28T16:13:08.612Z,44.07
2019-02-28T16:15:43.283Z,42.73
2019-02-28T16:18:11.924Z,54.10
2019-02-28T16:20:42.186Z,43.30
2019-02-28T16:23:13.232Z,58.53
2019-02-28T16:25:42.502Z,52.03
2019-02-28T16:28:11.709Z,58.83
2019-02-28T16:30:40.865Z,49.87
2019-02-28T16:33:10.024Z,47.47
2019-02-28T16:35:39.451Z,43.70
2019-02-28T16:38:10.090Z,44.57
2019-02-28T16:40:39.516Z,49.27
2019-02-28T16:43:08.785Z,39.47
2019-02-28T16:45:47.168Z,42.00
2019-02-28T16:48:16.492Z,44.27
2019-02-28T16:50:50.627Z,45.10
2019-02-28T16:53:19.620Z,51.43
2019-02-28T16:55:48.763Z,58.23
2019-02-28T16:58:18.640Z,45.30
2019-02-28T17:00:48.952Z,48.17
2019-02-28T17:03:18.307Z,45.97
2019-02-28T17:08:46.699Z,44.40
2019-02-28T17:11:19.040Z,48.77
2019-02-28T17:13:58.223Z,43.63
2019-02-28T17:16:49.301Z,52.33
2019-02-28T17:19:18.479Z,49.37
2019-02-28T17:21:48.711Z,48.97
2019-02-28T17:24:26.156Z,49.97
2019-02-28T17:27:07.449Z,24.03
2019-02-28T17:29:43.793Z,55.48
2019-02-28T17:32:12.976Z,42.63
2019-02-28T17:34:42.488Z,46.50
2019-02-28T17:37:11.956Z,52.70
2019-02-28T17:39:41.139Z,51.47
2019-02-28T17:42:14.808Z,53.07
2019-02-28T17:44:44.351Z,45.90
2019-02-28T17:47:50.019Z,53.53
2019-02-28T17:50:33.168Z,49.23
2019-02-28T17:53:45.672Z,44.73
2019-02-28T17:56:30.939Z,46.90
2019-02-28T17:59:36.098Z,41.97
2019-02-28T18:02:20.479Z,51.27
2019-02-28T18:05:29.895Z,49.80
2019-02-28T18:08:12.187Z,44.37
2019-02-28T18:11:17.628Z,43.60
2019-02-28T18:14:06.973Z,44.53
2019-02-28T18:17:01.615Z,49.37
2019-02-28T18:20:01.824Z,44.53
2019-02-28T18:22:48.749Z,37.60
2019-02-28T18:26:15.283Z,45.77
2019-02-28T18:28:51.502Z,44.97
2019-02-28T18:31:22.196Z,44.33
2019-02-28T18:34:16.974Z,39.50
2019-02-28T18:36:45.336Z,43.20
2019-02-28T18:39:14.457Z,43.97
2019-02-28T18:41:43.611Z,38.80
2019-02-28T18:44:12.652Z,40.57
2019-02-28T18:46:42.149Z,35.20
2019-02-28T18:49:11.309Z,41.40
2019-02-28T18:51:40.575Z,38.40
2019-02-28T18:54:09.886Z,41.17
2019-02-28T18:56:40.963Z,34.97
2019-02-28T18:59:10.077Z,38.40
2019-02-28T19:01:39.917Z,40.80
2019-02-28T19:04:09.179Z,39.03
2019-02-28T19:06:38.531Z,36.63
2019-02-28T19:09:19.767Z,40.10
2019-02-28T19:11:48.852Z,41.47
2019-02-28T19:14:18.006Z,48.67
2019-02-28T19:16:47.117Z,36.47
2019-02-28T19:19:16.376Z,37.43
2019-02-28T19:21:45.680Z,39.77
2019-02-28T19:24:14.679Z,45.57
2019-02-28T19:26:43.827Z,43.47
2019-02-28T19:29:13.045Z,46.43
2019-02-28T19:31:42.151Z,42.90
2019-02-28T19:34:11.351Z,45.20
2019-02-28T19:36:40.439Z,47.97
2019-02-28T19:39:09.531Z,41.77
2019-02-28T19:41:38.653Z,43.47
2019-02-28T19:44:07.740Z,45.87
2019-02-28T19:46:36.967Z,54.30
2019-02-28T19:49:06.112Z,40.73
2019-02-28T19:51:40.171Z,52.47
2019-02-28T19:54:06.716Z,42.23
2019-02-28T19:56:37.367Z,51.50
2019-02-28T19:59:07.510Z,45.73
2019-02-28T20:01:36.946Z,42.63
2019-02-28T20:04:07.147Z,50.27
2019-02-28T20:06:37.643Z,51.73
2019-02-28T20:09:10.264Z,52.30
2019-02-28T20:11:40.667Z,49.90
2019-02-28T20:14:10.176Z,53.47
2019-02-28T20:16:39.616Z,48.53
2019-02-28T20:19:10.747Z,46.80
2019-02-28T20:21:42.575Z,44.70
2019-02-28T20:24:19.110Z,44.60
2019-02-28T20:26:48.214Z,60.00
2019-02-28T20:29:27.749Z,51.00
2019-02-28T20:32:06.092Z,71.47
2019-02-28T20:34:35.179Z,58.47
2019-02-28T20:37:07.395Z,52.58
2019-02-28T20:39:36.536Z,47.17
2019-02-28T20:42:05.774Z,46.37
2019-02-28T20:44:35.077Z,50.63
2019-02-28T20:47:04.357Z,58.60
2019-02-28T20:52:21.661Z,55.90
2019-02-28T20:54:50.875Z,46.90
2019-02-28T20:57:20.188Z,42.23
2019-02-28T20:59:49.300Z,43.67
2019-02-28T21:02:18.862Z,50.63
2019-02-28T21:04:48.405Z,51.10
2019-02-28T21:07:17.539Z,45.77
2019-02-28T21:09:46.758Z,47.67
2019-02-28T21:12:16.143Z,41.70
2019-02-28T21:14:45.267Z,40.93
2019-02-28T21:17:14.422Z,44.67
2019-02-28T21:19:43.866Z,39.63
2019-02-28T21:22:13.291Z,46.57
2019-02-28T21:24:42.465Z,40.37
2019-02-28T21:27:11.687Z,53.40
2019-02-28T21:29:40.899Z,42.73
2019-02-28T21:32:10.198Z,41.30
2019-02-28T21:34:39.360Z,37.87
2019-02-28T21:37:08.656Z,34.37
2019-02-28T21:39:37.759Z,43.00
2019-02-28T21:42:06.923Z,41.77
2019-02-28T21:44:36.183Z,47.83
2019-02-28T21:47:05.304Z,50.93
2019-02-28T21:49:34.438Z,53.37
2019-02-28T21:52:03.547Z,42.67
2019-02-28T21:54:32.763Z,46.83
2019-02-28T21:57:01.875Z,52.53
2019-02-28T21:59:32.106Z,51.73
2019-02-28T22:02:01.305Z,47.03
2019-02-28T22:04:30.389Z,44.27
2019-02-28T22:06:59.731Z,45.63
2019-02-28T22:09:29.023Z,38.43
2019-02-28T22:14:46.411Z,39.13
2019-02-28T22:17:15.491Z,44.27
2019-02-28T22:19:44.556Z,42.40
2019-02-28T22:22:14.060Z,45.67
2019-02-28T22:24:43.101Z,50.37
2019-02-28T22:27:12.147Z,54.17
2019-02-28T22:29:41.283Z,46.40
2019-02-28T22:32:24.154Z,40.97
2019-02-28T22:35:10.272Z,35.63
2019-02-28T22:37:39.356Z,44.73
2019-02-28T22:40:08.537Z,50.03
2019-02-28T22:42:37.676Z,40.83
2019-02-28T22:45:07.214Z,43.37
2019-02-28T22:47:36.221Z,46.93
2019-02-28T22:50:05.559Z,41.73
2019-02-28T22:52:34.566Z,46.07
2019-02-28T22:55:03.767Z,42.80
2019-02-28T22:57:32.925Z,30.87
2019-02-28T23:00:02.131Z,36.33
2019-02-28T23:02:31.295Z,45.53
2019-02-28T23:05:00.459Z,39.63
2019-02-28T23:07:29.532Z,42.87
2019-02-28T23:09:58.573Z,49.70
2019-02-28T23:12:27.766Z,51.73
2019-02-28T23:14:56.815Z,40.83
2019-02-28T23:17:26.238Z,42.77
2019-02-28T23:19:55.303Z,42.50
2019-02-28T23:22:24.492Z,36.13
2019-02-28T23:24:53.572Z,34.67
2019-02-28T23:27:22.701Z,46.77
2019-02-28T23:30:31.823Z,35.07
2019-02-28T23:33:04.322Z,35.27
2019-02-28T23:35:40.769Z,30.37
2019-02-28T23:38:09.623Z,31.47
2019-02-28T23:40:38.703Z,33.00
2019-02-28T23:43:08.040Z,39.73
2019-02-28T23:45:37.133Z,36.83
2019-02-28T23:48:06.187Z,36.60
2019-02-28T23:50:35.283Z,35.70
2019-02-28T23:53:04.464Z,33.47
2019-02-28T23:55:33.543Z,37.40
2019-02-28T23:58:03.211Z,41.70
